KEMP

Emporia Municipal Airport

Emporia, Kansas, USA
METAR KEMP 212253Z AUTO 01005KT 8SM SCT060 27/17 A3013 RMK AO2 SLP196 T02720172
Observed Flight Rules
Aug-21 @ 22:53 UTC (52 minutes ago) Visual Flight Rules
Wind Visibility Clouds
10° at 5 knots 8 miles
  • Scattered at 6,000' AGL
Temperatures Readings
Current 27°C / 81°F
Dewpoint 17°C / 63°F
Humidity 54%
Altimeter 30.13" Hg
Pressure 1019.6 hPa
Elevation 367
METAR KEMP 212253Z AUTO 01005KT 8SM SCT060 27/17 A3013 RMK AO2 SLP196 T02720172
Observed Flight Rules
Aug-21 @ 22:53 UTC
(52 minutes ago)
VFR
Wind Visibility
10° at 5 knots 8 miles
Clouds
  • Scattered at 6,000' AGL
Temperature Dewpoint
27°C / 81°F 17°C / 63°F
Humidity Altimeter Pressure
54% 30.13" Hg 1019.6 hPa